createdAt,value
2023-05-01T00:02:21.619Z,13.32
2023-05-01T00:04:48.363Z,13.37
2023-05-01T00:07:15.021Z,13.36
2023-05-01T00:09:41.714Z,13.36
2023-05-01T00:12:08.259Z,13.38
2023-05-01T00:14:34.842Z,13.40
2023-05-01T00:17:01.659Z,13.34
2023-05-01T00:19:29.607Z,13.35
2023-05-01T00:21:56.242Z,13.35
2023-05-01T00:24:22.673Z,13.35
2023-05-01T00:26:49.330Z,13.31
2023-05-01T00:29:16.175Z,13.27
2023-05-01T00:31:42.895Z,13.30
2023-05-01T00:34:09.730Z,13.21
2023-05-01T00:36:37.658Z,13.26
2023-05-01T00:39:04.284Z,13.26
2023-05-01T00:41:30.847Z,13.25
2023-05-01T00:43:57.574Z,13.21
2023-05-01T00:46:24.666Z,13.20
2023-05-01T00:48:51.984Z,13.13
2023-05-01T00:51:19.880Z,13.12
2023-05-01T00:53:48.022Z,13.09
2023-05-01T00:56:15.570Z,13.12
2023-05-01T00:58:42.300Z,13.19
2023-05-01T01:01:08.972Z,13.14
2023-05-01T01:03:35.836Z,13.21
2023-05-01T01:06:09.340Z,13.29
2023-05-01T01:08:45.481Z,13.20
2023-05-01T01:11:23.983Z,13.29
2023-05-01T01:13:58.407Z,13.29
2023-05-01T01:16:36.689Z,13.32
2023-05-01T01:19:16.324Z,13.35
2023-05-01T01:21:45.889Z,13.40
2023-05-01T01:24:46.291Z,13.28
2023-05-01T01:27:42.263Z,13.34
2023-05-01T01:30:32.012Z,13.19
2023-05-01T01:33:35.971Z,13.28
2023-05-01T01:36:08.252Z,13.41
2023-05-01T01:38:42.327Z,13.38
2023-05-01T01:41:12.053Z,13.39
2023-05-01T01:43:43.417Z,13.40
2023-05-01T01:46:11.586Z,13.31
2023-05-01T01:48:42.436Z,13.48
2023-05-01T01:51:14.958Z,13.42
2023-05-01T01:53:46.393Z,13.48
2023-05-01T01:56:17.425Z,13.54
2023-05-01T01:58:47.053Z,13.61
2023-05-01T02:01:15.794Z,13.54
2023-05-01T02:03:45.894Z,13.47
2023-05-01T02:06:15.931Z,13.48
2023-05-01T02:08:46.915Z,13.53
2023-05-01T02:11:15.548Z,13.52
2023-05-01T02:13:43.722Z,13.44
2023-05-01T02:16:12.542Z,13.35
2023-05-01T02:18:40.802Z,13.38
2023-05-01T02:21:08.016Z,13.28
2023-05-01T02:23:36.967Z,13.21
2023-05-01T02:26:08.886Z,13.25
2023-05-01T02:28:38.658Z,13.28
2023-05-01T02:31:05.282Z,13.30
2023-05-01T02:33:32.088Z,13.33
2023-05-01T02:35:58.623Z,13.48
2023-05-01T02:38:28.238Z,13.45
2023-05-01T02:40:57.871Z,13.45
2023-05-01T02:43:26.632Z,13.49
2023-05-01T02:45:54.987Z,13.44
2023-05-01T02:48:25.469Z,13.46
2023-05-01T02:50:53.330Z,13.45
2023-05-01T02:53:20.743Z,13.53
2023-05-01T02:55:47.470Z,13.56
2023-05-01T02:58:18.899Z,13.70
2023-05-01T03:00:45.886Z,13.70
2023-05-01T03:03:12.762Z,13.70
2023-05-01T03:05:39.355Z,13.64
2023-05-01T03:08:06.474Z,13.75
2023-05-01T03:10:33.189Z,13.88
2023-05-01T03:12:59.762Z,13.84
2023-05-01T03:15:27.811Z,13.92
2023-05-01T03:17:54.314Z,13.93
2023-05-01T03:20:21.059Z,13.87
2023-05-01T03:22:47.620Z,13.81
2023-05-01T03:25:14.113Z,13.76
2023-05-01T03:27:40.654Z,13.78
2023-05-01T03:30:08.549Z,13.67
2023-05-01T03:32:36.575Z,13.75
2023-05-01T03:35:03.551Z,13.71
2023-05-01T03:37:30.119Z,13.65
2023-05-01T03:39:56.894Z,13.64
2023-05-01T03:42:23.538Z,13.66
2023-05-01T03:44:50.342Z,13.73
2023-05-01T03:47:16.859Z,13.60
2023-05-01T03:49:45.261Z,13.62
2023-05-01T03:52:11.947Z,13.61
2023-05-01T03:54:38.513Z,13.65
2023-05-01T03:57:05.119Z,13.69
2023-05-01T03:59:31.668Z,13.66
2023-05-01T04:01:58.274Z,13.56
2023-05-01T04:04:24.935Z,13.46
2023-05-01T04:06:52.957Z,13.52
2023-05-01T04:09:19.525Z,13.43
2023-05-01T04:11:46.063Z,13.45
2023-05-01T04:14:12.566Z,13.51
2023-05-01T04:16:39.321Z,13.61
2023-05-01T04:19:05.905Z,13.66
2023-05-01T04:21:32.470Z,13.66
2023-05-01T04:24:00.307Z,13.72
2023-05-01T04:26:26.817Z,13.77
2023-05-01T04:28:53.321Z,13.84
2023-05-01T04:31:19.897Z,13.87
2023-05-01T04:33:46.568Z,13.85
2023-05-01T04:36:13.152Z,13.81
2023-05-01T04:38:39.731Z,13.93
2023-05-01T04:41:07.511Z,14.11
2023-05-01T04:43:34.154Z,14.18
2023-05-01T04:46:00.755Z,14.22
2023-05-01T04:48:27.270Z,14.34
2023-05-01T04:50:53.833Z,14.50
2023-05-01T04:53:20.458Z,14.48
2023-05-01T04:55:47.324Z,14.69
2023-05-01T04:58:15.692Z,14.81
2023-05-01T05:00:42.232Z,15.04
2023-05-01T05:03:08.902Z,15.01
2023-05-01T05:05:35.805Z,15.14
2023-05-01T05:08:02.357Z,15.27
2023-05-01T05:10:28.921Z,15.43
2023-05-01T05:12:55.561Z,15.49
2023-05-01T05:15:23.674Z,15.52
2023-05-01T05:17:50.254Z,15.72
2023-05-01T05:20:17.049Z,15.98
2023-05-01T05:22:43.567Z,15.88
2023-05-01T05:25:10.130Z,16.16
2023-05-01T05:27:36.673Z,16.37
2023-05-01T05:30:04.195Z,16.58
2023-05-01T05:32:32.230Z,16.39
2023-05-01T05:34:59.001Z,16.62
2023-05-01T05:37:25.550Z,16.78
2023-05-01T05:39:52.292Z,16.93
2023-05-01T05:42:18.766Z,17.33
2023-05-01T05:44:45.721Z,17.55
2023-05-01T05:47:12.301Z,17.79
2023-05-01T05:49:40.260Z,18.05
2023-05-01T05:52:06.824Z,18.21
2023-05-01T05:54:33.680Z,18.48
2023-05-01T05:57:00.213Z,18.82
2023-05-01T05:59:26.771Z,18.82
2023-05-01T06:01:53.630Z,18.37
2023-05-01T06:04:20.153Z,18.72
2023-05-01T06:06:48.619Z,18.74
2023-05-01T06:09:15.216Z,18.84
2023-05-01T06:11:41.664Z,18.73
2023-05-01T06:14:08.234Z,19.12
2023-05-01T06:16:34.907Z,19.19
2023-05-01T06:19:01.672Z,19.45
2023-05-01T06:21:28.282Z,19.46
2023-05-01T06:23:56.187Z,19.52
2023-05-01T06:26:22.831Z,19.55
2023-05-01T06:28:49.416Z,19.45
2023-05-01T06:31:16.040Z,19.60
2023-05-01T06:33:42.705Z,19.82
2023-05-01T06:36:09.352Z,19.86
2023-05-01T06:38:35.872Z,19.78
2023-05-01T06:41:04.331Z,19.79
2023-05-01T06:43:30.879Z,19.80
2023-05-01T06:45:57.502Z,19.95
2023-05-01T06:48:24.027Z,19.88
2023-05-01T06:50:50.725Z,19.75
2023-05-01T06:53:17.289Z,19.97
2023-05-01T06:55:44.345Z,20.09
2023-05-01T06:58:22.725Z,19.36
2023-05-01T07:00:50.674Z,19.79
2023-05-01T07:03:17.437Z,19.95
2023-05-01T07:05:44.208Z,20.22
2023-05-01T07:08:10.757Z,20.30
2023-05-01T07:10:38.246Z,20.35
2023-05-01T07:13:06.413Z,19.86
2023-05-01T07:15:34.333Z,20.07
2023-05-01T07:18:00.930Z,20.14
2023-05-01T07:20:27.666Z,20.10
2023-05-01T07:22:54.230Z,20.42
2023-05-01T07:25:20.971Z,20.43
2023-05-01T07:27:47.723Z,20.51
2023-05-01T07:30:14.391Z,20.75
2023-05-01T07:32:42.364Z,20.62
2023-05-01T07:35:09.363Z,20.82
2023-05-01T07:37:36.058Z,20.93
2023-05-01T07:40:03.060Z,21.15
2023-05-01T07:42:29.643Z,21.40
2023-05-01T07:44:56.256Z,21.89
2023-05-01T07:47:22.845Z,22.23
2023-05-01T07:49:50.775Z,22.41
2023-05-01T07:52:17.387Z,23.01
2023-05-01T07:54:48.560Z,22.66
2023-05-01T07:57:15.161Z,22.87
2023-05-01T07:59:41.726Z,22.82
2023-05-01T08:02:08.523Z,22.91
2023-05-01T08:04:35.194Z,23.51
2023-05-01T08:07:03.205Z,23.55
2023-05-01T08:09:29.826Z,23.54
2023-05-01T08:11:56.401Z,23.36
2023-05-01T08:14:23.048Z,23.60
2023-05-01T08:16:49.659Z,23.66
2023-05-01T08:19:16.240Z,23.66
2023-05-01T08:21:42.825Z,24.27
2023-05-01T08:24:10.768Z,24.08
2023-05-01T08:26:37.527Z,24.40
2023-05-01T08:29:04.097Z,24.70
2023-05-01T08:31:30.770Z,24.76
2023-05-01T08:33:57.408Z,25.17
2023-05-01T08:36:23.988Z,25.63
2023-05-01T08:38:50.735Z,25.93
2023-05-01T08:41:21.311Z,26.19
2023-05-01T08:43:48.846Z,26.60
2023-05-01T08:46:25.352Z,26.73
2023-05-01T08:48:57.700Z,26.71
2023-05-01T08:51:25.853Z,26.41
2023-05-01T08:53:53.955Z,26.80
2023-05-01T08:56:22.358Z,26.83
2023-05-01T08:58:49.552Z,27.06
2023-05-01T09:01:16.779Z,26.89
2023-05-01T09:03:44.055Z,26.64
2023-05-01T09:06:11.243Z,25.98
2023-05-01T09:08:38.001Z,26.05
2023-05-01T09:11:04.848Z,25.90
2023-05-01T09:13:33.062Z,25.95
2023-05-01T09:16:00.264Z,26.00
2023-05-01T09:18:27.286Z,25.78
2023-05-01T09:20:54.308Z,25.82
2023-05-01T09:23:20.919Z,25.43
2023-05-01T09:25:49.609Z,25.32
2023-05-01T09:28:17.924Z,25.60
2023-05-01T09:30:45.780Z,25.45
2023-05-01T09:33:14.066Z,25.51
2023-05-01T09:35:51.381Z,25.39
2023-05-01T09:38:19.141Z,25.73
2023-05-01T09:40:45.930Z,25.79
2023-05-01T09:43:12.655Z,25.69
2023-05-01T09:45:39.251Z,25.61
2023-05-01T09:48:11.117Z,25.49
2023-05-01T09:50:38.538Z,25.58
2023-05-01T09:53:05.489Z,25.52
2023-05-01T09:55:32.609Z,25.89
2023-05-01T09:57:59.293Z,25.99
2023-05-01T10:00:26.741Z,26.04
2023-05-01T10:02:53.647Z,25.78
2023-05-01T10:05:21.805Z,26.04
2023-05-01T10:07:59.039Z,26.06
2023-05-01T10:10:26.184Z,26.47
2023-05-01T10:12:53.989Z,26.46
2023-05-01T10:15:26.282Z,26.61
2023-05-01T10:17:54.317Z,26.90
2023-05-01T10:20:22.778Z,26.89
2023-05-01T10:22:49.831Z,27.07
2023-05-01T10:25:17.741Z,26.84
2023-05-01T10:27:44.397Z,26.90
2023-05-01T10:30:11.567Z,26.29
2023-05-01T10:32:40.913Z,26.81
2023-05-01T10:35:11.474Z,27.13
2023-05-01T10:37:47.001Z,27.28
2023-05-01T10:40:45.140Z,27.30
2023-05-01T10:43:23.354Z,27.23
2023-05-01T10:45:50.007Z,26.91
2023-05-01T10:48:54.519Z,27.12
2023-05-01T10:51:23.259Z,27.43
2023-05-01T10:54:23.714Z,27.40
2023-05-01T10:56:50.951Z,27.48
2023-05-01T10:59:17.520Z,27.38
2023-05-01T11:01:44.938Z,27.23
2023-05-01T11:04:44.723Z,27.36
2023-05-01T11:07:16.133Z,26.87
2023-05-01T11:09:45.942Z,26.72
2023-05-01T11:12:14.272Z,26.68
2023-05-01T11:15:05.939Z,26.53
2023-05-01T11:17:45.626Z,26.61
2023-05-01T11:20:13.363Z,26.50
2023-05-01T11:22:44.432Z,26.25
2023-05-01T11:25:20.233Z,26.29
2023-05-01T11:27:47.988Z,26.12
2023-05-01T11:30:14.751Z,26.54
2023-05-01T11:32:43.776Z,26.99
2023-05-01T11:35:17.546Z,27.21
2023-05-01T11:37:44.817Z,26.82
2023-05-01T11:40:24.644Z,26.97
2023-05-01T11:42:52.533Z,27.29
2023-05-01T11:45:20.052Z,27.48
2023-05-01T11:47:48.092Z,27.57
2023-05-01T11:50:14.753Z,27.70
2023-05-01T11:52:43.085Z,27.64
2023-05-01T11:55:10.214Z,27.69
2023-05-01T11:57:47.346Z,27.69
2023-05-01T12:00:15.545Z,28.14
2023-05-01T12:02:59.024Z,28.36
2023-05-01T12:05:26.255Z,28.50
2023-05-01T12:08:06.412Z,28.16
2023-05-01T12:10:35.436Z,27.98
2023-05-01T12:13:04.705Z,28.03
2023-05-01T12:15:31.871Z,27.82
2023-05-01T12:17:58.746Z,27.43
2023-05-01T12:20:35.226Z,27.07
2023-05-01T12:23:03.212Z,27.33
2023-05-01T12:25:30.287Z,27.33
2023-05-01T12:27:57.179Z,27.56
2023-05-01T12:30:28.382Z,27.68
2023-05-01T12:32:55.544Z,27.77
2023-05-01T12:35:23.193Z,27.93
2023-05-01T12:37:49.754Z,27.83
2023-05-01T12:40:16.576Z,27.68
2023-05-01T12:42:43.148Z,27.30
2023-05-01T12:45:10.749Z,27.20
2023-05-01T12:47:39.509Z,26.63
2023-05-01T12:50:07.301Z,26.42
2023-05-01T12:52:33.996Z,26.67
2023-05-01T12:55:04.831Z,26.56
2023-05-01T12:57:31.828Z,26.70
2023-05-01T12:59:59.973Z,26.77
2023-05-01T13:02:30.695Z,26.73
2023-05-01T13:05:08.306Z,26.96
2023-05-01T13:07:35.727Z,27.01
2023-05-01T13:10:03.524Z,26.91
2023-05-01T13:12:30.428Z,26.99
2023-05-01T13:14:57.540Z,27.20
2023-05-01T13:17:25.097Z,27.08
2023-05-01T13:19:55.665Z,26.84
2023-05-01T13:22:31.389Z,26.48
2023-05-01T13:24:58.248Z,26.70
2023-05-01T13:27:25.444Z,26.46
2023-05-01T13:29:54.344Z,26.27
2023-05-01T13:32:20.914Z,26.11
2023-05-01T13:34:47.455Z,25.78
2023-05-01T13:37:13.953Z,25.62
2023-05-01T13:39:43.195Z,25.52
2023-05-01T13:42:11.998Z,25.26
2023-05-01T13:44:43.588Z,24.88
2023-05-01T13:47:15.126Z,24.65
2023-05-01T13:49:42.263Z,24.60
2023-05-01T13:52:11.677Z,24.31
2023-05-01T13:54:40.311Z,24.07
2023-05-01T13:57:10.828Z,23.83
2023-05-01T13:59:40.093Z,23.67
2023-05-01T14:02:18.454Z,23.40
2023-05-01T14:04:45.057Z,23.53
2023-05-01T14:07:12.758Z,23.44
2023-05-01T14:09:41.220Z,23.72
2023-05-01T14:12:09.276Z,23.75
2023-05-01T14:14:36.214Z,23.50
2023-05-01T14:17:02.827Z,23.39
2023-05-01T14:19:29.607Z,23.60
2023-05-01T14:21:56.152Z,23.50
2023-05-01T14:24:22.761Z,23.56
2023-05-01T14:26:49.272Z,23.50
2023-05-01T14:29:22.680Z,23.28
2023-05-01T14:31:49.398Z,23.41
2023-05-01T14:34:18.161Z,23.23
2023-05-01T14:36:44.759Z,23.41
2023-05-01T14:39:12.300Z,23.53
2023-05-01T14:41:42.660Z,23.60
2023-05-01T14:44:12.642Z,23.51
2023-05-01T14:46:44.356Z,23.54
2023-05-01T14:49:17.042Z,23.66
2023-05-01T14:51:43.654Z,23.72
2023-05-01T14:54:10.339Z,23.48
2023-05-01T14:56:37.058Z,22.89
2023-05-01T14:59:03.651Z,22.62
2023-05-01T15:01:30.447Z,22.72
2023-05-01T15:03:59.785Z,22.32
2023-05-01T15:06:27.845Z,22.11
2023-05-01T15:08:54.726Z,22.20
2023-05-01T15:11:21.302Z,22.35
2023-05-01T15:13:48.137Z,22.63
2023-05-01T15:16:14.905Z,22.28
2023-05-01T15:18:41.472Z,21.92
2023-05-01T15:21:09.380Z,21.56
2023-05-01T15:23:41.040Z,21.67
2023-05-01T15:26:07.607Z,21.44
2023-05-01T15:28:34.171Z,21.84
2023-05-01T15:31:00.780Z,21.51
2023-05-01T15:33:27.608Z,20.83
2023-05-01T15:35:54.289Z,21.36
2023-05-01T15:38:22.275Z,21.24
2023-05-01T15:40:48.982Z,21.00
2023-05-01T15:43:15.826Z,21.30
2023-05-01T15:45:42.530Z,21.38
2023-05-01T15:48:09.944Z,21.62
2023-05-01T15:50:36.601Z,21.37
2023-05-01T15:53:03.348Z,21.23
2023-05-01T15:55:31.257Z,20.84
2023-05-01T15:57:57.905Z,20.49
2023-05-01T16:00:24.577Z,20.90
2023-05-01T16:02:51.291Z,20.63
2023-05-01T16:05:20.118Z,20.73
2023-05-01T16:07:48.563Z,20.55
2023-05-01T16:10:15.307Z,20.53
2023-05-01T16:12:43.338Z,20.36
2023-05-01T16:15:11.600Z,20.30
2023-05-01T16:17:43.069Z,20.46
2023-05-01T16:20:11.062Z,19.94
2023-05-01T16:22:38.663Z,20.10
2023-05-01T16:25:06.024Z,19.99
2023-05-01T16:27:32.632Z,20.13
2023-05-01T16:30:01.209Z,20.05
2023-05-01T16:32:28.177Z,20.28
2023-05-01T16:34:54.805Z,20.45
2023-05-01T16:37:24.298Z,20.27
2023-05-01T16:39:50.905Z,20.18
2023-05-01T16:42:28.928Z,20.25
2023-05-01T16:44:56.221Z,20.37
2023-05-01T16:47:24.239Z,20.50
2023-05-01T16:49:50.860Z,20.05
2023-05-01T16:52:17.470Z,20.26
2023-05-01T16:54:44.094Z,20.28
2023-05-01T16:57:10.743Z,20.17
2023-05-01T16:59:37.605Z,20.40
2023-05-01T17:02:04.213Z,20.42
2023-05-01T17:04:32.353Z,20.49
2023-05-01T17:06:59.136Z,20.55
2023-05-01T17:09:25.849Z,20.55
2023-05-01T17:11:52.456Z,20.61
2023-05-01T17:14:19.143Z,20.75
2023-05-01T17:19:12.361Z,20.67
2023-05-01T17:21:40.318Z,20.72
2023-05-01T17:24:07.030Z,20.88
2023-05-01T17:26:33.584Z,20.89
2023-05-01T17:29:01.114Z,20.86
2023-05-01T17:31:29.426Z,20.75
2023-05-01T17:33:56.028Z,20.65
2023-05-01T17:36:22.813Z,20.57
2023-05-01T17:38:50.788Z,20.60
2023-05-01T17:41:17.394Z,20.46
2023-05-01T17:43:43.889Z,20.46
2023-05-01T17:46:10.698Z,20.39
2023-05-01T17:48:37.758Z,20.33
2023-05-01T17:51:04.320Z,20.18
2023-05-01T17:53:30.886Z,20.21
2023-05-01T17:55:59.434Z,20.20
2023-05-01T17:58:26.017Z,20.10
2023-05-01T18:00:52.588Z,20.02
2023-05-01T18:03:19.293Z,19.95
2023-05-01T18:05:45.891Z,19.77
2023-05-01T18:08:12.954Z,19.66
2023-05-01T18:10:39.543Z,19.52
2023-05-01T18:13:07.508Z,19.25
2023-05-01T18:15:34.239Z,19.17
2023-05-01T18:18:00.882Z,19.06
2023-05-01T18:20:28.066Z,18.83
2023-05-01T18:22:54.695Z,18.77
2023-05-01T18:25:21.332Z,18.65
2023-05-01T18:27:47.898Z,18.65
2023-05-01T18:30:15.890Z,18.66
2023-05-01T18:32:48.057Z,18.48
2023-05-01T18:35:15.962Z,18.44
2023-05-01T18:37:42.752Z,18.42
2023-05-01T18:40:10.232Z,18.23
2023-05-01T18:42:36.814Z,18.04
2023-05-01T18:45:03.753Z,18.06
2023-05-01T18:47:31.734Z,17.87
2023-05-01T18:49:58.561Z,17.76
2023-05-01T18:52:25.229Z,17.61
2023-05-01T18:54:51.868Z,17.56
2023-05-01T18:57:18.466Z,17.45
2023-05-01T18:59:45.245Z,17.36
2023-05-01T19:02:12.119Z,17.17
2023-05-01T19:04:56.145Z,17.12
2023-05-01T19:07:23.741Z,16.83
2023-05-01T19:09:50.363Z,16.79
2023-05-01T19:12:16.956Z,16.71
2023-05-01T19:14:43.910Z,16.51
2023-05-01T19:17:10.840Z,16.41
2023-05-01T19:19:37.426Z,16.27
2023-05-01T19:22:05.413Z,16.24
2023-05-01T19:24:32.410Z,16.19
2023-05-01T19:26:59.118Z,15.98
2023-05-01T19:29:25.854Z,16.00
2023-05-01T19:31:52.550Z,15.91
2023-05-01T19:34:20.292Z,15.82
2023-05-01T19:36:46.877Z,15.72
2023-05-01T19:39:14.980Z,15.74
2023-05-01T19:41:41.671Z,15.77
2023-05-01T19:44:08.254Z,15.83
2023-05-01T19:46:34.830Z,15.88
2023-05-01T19:49:01.449Z,15.94
2023-05-01T19:51:28.972Z,15.97
2023-05-01T19:53:56.176Z,15.96
2023-05-01T19:56:24.193Z,15.94
2023-05-01T19:58:54.121Z,15.92
2023-05-01T20:01:21.110Z,15.86
2023-05-01T20:03:47.867Z,15.77
2023-05-01T20:06:14.578Z,15.65
2023-05-01T20:08:41.808Z,15.50
2023-05-01T20:11:08.748Z,15.55
2023-05-01T20:13:36.710Z,15.56
2023-05-01T20:16:04.013Z,15.45
2023-05-01T20:18:30.812Z,15.36
2023-05-01T20:20:57.530Z,15.14
2023-05-01T20:23:24.125Z,15.07
2023-05-01T20:25:50.976Z,15.04
2023-05-01T20:28:18.049Z,15.05
2023-05-01T20:30:47.180Z,14.98
2023-05-01T20:33:14.391Z,14.86
2023-05-01T20:35:41.078Z,14.85
2023-05-01T20:38:07.769Z,14.73
2023-05-01T20:40:37.145Z,14.75
2023-05-01T20:43:03.713Z,14.64
2023-05-01T20:45:33.270Z,14.64
2023-05-01T20:48:01.425Z,14.65
2023-05-01T20:50:28.090Z,14.56
2023-05-01T20:52:54.871Z,14.54
2023-05-01T20:55:21.613Z,14.38
2023-05-01T20:57:48.316Z,14.32
2023-05-01T21:00:15.515Z,14.30
2023-05-01T21:02:42.664Z,14.23
2023-05-01T21:05:11.094Z,14.32
2023-05-01T21:07:38.709Z,14.32
2023-05-01T21:10:06.710Z,14.19
2023-05-01T21:12:33.348Z,14.16
2023-05-01T21:15:00.223Z,14.21
2023-05-01T21:17:26.892Z,14.16
2023-05-01T21:19:53.851Z,14.05
2023-05-01T21:22:23.008Z,13.92
2023-05-01T21:24:52.857Z,13.96
2023-05-01T21:27:19.420Z,13.92
2023-05-01T21:29:50.559Z,14.04
2023-05-01T21:32:17.117Z,13.98
2023-05-01T21:34:43.742Z,13.98
2023-05-01T21:37:10.547Z,13.97
2023-05-01T21:39:38.622Z,14.02
2023-05-01T21:42:05.284Z,13.95
2023-05-01T21:44:32.031Z,13.91
2023-05-01T21:46:58.650Z,13.78
2023-05-01T21:49:26.536Z,13.79
2023-05-01T21:51:53.869Z,13.76
2023-05-01T21:54:21.751Z,13.71
2023-05-01T21:56:49.840Z,13.79
2023-05-01T21:59:17.252Z,13.71
2023-05-01T22:01:43.882Z,13.63
2023-05-01T22:04:15.094Z,13.70
2023-05-01T22:06:41.819Z,13.66
2023-05-01T22:09:08.432Z,13.65
2023-05-01T22:11:35.200Z,13.58
2023-05-01T22:14:03.192Z,13.64
2023-05-01T22:16:29.830Z,13.59
2023-05-01T22:18:56.473Z,13.62
2023-05-01T22:21:23.054Z,13.58
2023-05-01T22:23:49.688Z,13.60
2023-05-01T22:26:16.260Z,13.53
2023-05-01T22:28:43.233Z,13.48
2023-05-01T22:31:11.138Z,13.34
2023-05-01T22:33:37.728Z,13.32
2023-05-01T22:36:07.323Z,13.33
2023-05-01T22:38:34.319Z,13.32
2023-05-01T22:41:00.893Z,13.33
2023-05-01T22:43:27.444Z,13.36
2023-05-01T22:45:54.031Z,13.30
2023-05-01T22:48:21.970Z,13.23
2023-05-01T22:50:48.693Z,13.26
2023-05-01T22:53:15.242Z,13.26
2023-05-01T22:55:41.856Z,13.36
2023-05-01T22:58:08.430Z,13.31
2023-05-01T23:00:35.004Z,13.30
2023-05-01T23:03:01.665Z,13.22
2023-05-01T23:05:29.988Z,13.29
2023-05-01T23:07:56.569Z,13.45
2023-05-01T23:10:26.355Z,13.53
2023-05-01T23:12:52.950Z,13.56
2023-05-01T23:15:25.122Z,13.54
2023-05-01T23:17:51.961Z,13.56
2023-05-01T23:20:21.080Z,13.65
2023-05-01T23:22:49.274Z,13.74
2023-05-01T23:25:19.642Z,13.82
2023-05-01T23:27:50.099Z,13.83
2023-05-01T23:30:20.082Z,13.87
2023-05-01T23:32:46.660Z,13.93
2023-05-01T23:35:14.775Z,13.85
2023-05-01T23:37:41.778Z,13.77
2023-05-01T23:40:10.496Z,13.69
2023-05-01T23:42:37.978Z,13.59
2023-05-01T23:45:05.551Z,13.54
2023-05-01T23:47:32.251Z,13.42
2023-05-01T23:49:59.236Z,13.38
2023-05-01T23:52:26.291Z,13.29
2023-05-01T23:54:52.867Z,13.24
2023-05-01T23:57:20.913Z,13.22
2023-05-01T23:59:47.533Z,13.25
